sensor_id;sensor_type;location;lat;lon;timestamp;P1;durP1;ratioP1;P2;durP2;ratioP2
39410;SDS011;26579;43.238;23.124;2024-03-17T00:02:19;19.40;;;12.02;;
39410;SDS011;26579;43.238;23.124;2024-03-17T00:04:45;24.35;;;12.98;;
39410;SDS011;26579;43.238;23.124;2024-03-17T00:07:11;24.90;;;14.90;;
39410;SDS011;26579;43.238;23.124;2024-03-17T00:09:37;27.05;;;14.48;;
39410;SDS011;26579;43.238;23.124;2024-03-17T00:12:03;23.65;;;13.45;;
39410;SDS011;26579;43.238;23.124;2024-03-17T00:14:29;27.10;;;13.85;;
39410;SDS011;26579;43.238;23.124;2024-03-17T00:16:54;20.85;;;10.93;;
39410;SDS011;26579;43.238;23.124;2024-03-17T00:19:20;18.80;;;11.85;;
39410;SDS011;26579;43.238;23.124;2024-03-17T00:21:46;28.83;;;15.55;;
39410;SDS011;26579;43.238;23.124;2024-03-17T00:24:11;26.67;;;15.82;;
39410;SDS011;26579;43.238;23.124;2024-03-17T00:26:37;27.77;;;16.67;;
39410;SDS011;26579;43.238;23.124;2024-03-17T00:29:03;26.88;;;15.50;;
39410;SDS011;26579;43.238;23.124;2024-03-17T00:31:28;22.05;;;13.77;;
39410;SDS011;26579;43.238;23.124;2024-03-17T00:33:54;23.05;;;13.15;;
39410;SDS011;26579;43.238;23.124;2024-03-17T00:36:20;25.63;;;15.75;;
39410;SDS011;26579;43.238;23.124;2024-03-17T00:38:45;22.00;;;13.15;;
39410;SDS011;26579;43.238;23.124;2024-03-17T00:41:11;19.60;;;12.13;;
39410;SDS011;26579;43.238;23.124;2024-03-17T00:43:37;21.23;;;11.13;;
39410;SDS011;26579;43.238;23.124;2024-03-17T00:46:03;19.23;;;11.70;;
39410;SDS011;26579;43.238;23.124;2024-03-17T00:48:29;19.95;;;12.23;;
39410;SDS011;26579;43.238;23.124;2024-03-17T00:50:58;16.17;;;10.95;;
39410;SDS011;26579;43.238;23.124;2024-03-17T00:53:24;19.10;;;11.48;;
39410;SDS011;26579;43.238;23.124;2024-03-17T00:55:53;19.05;;;10.63;;
39410;SDS011;26579;43.238;23.124;2024-03-17T00:58:20;16.83;;;10.18;;
39410;SDS011;26579;43.238;23.124;2024-03-17T01:00:46;15.82;;;10.40;;
39410;SDS011;26579;43.238;23.124;2024-03-17T01:03:11;19.77;;;11.40;;
39410;SDS011;26579;43.238;23.124;2024-03-17T01:05:38;17.08;;;10.88;;
39410;SDS011;26579;43.238;23.124;2024-03-17T01:08:03;22.15;;;11.38;;
39410;SDS011;26579;43.238;23.124;2024-03-17T01:10:29;17.85;;;10.40;;
39410;SDS011;26579;43.238;23.124;2024-03-17T01:12:55;19.40;;;10.65;;
39410;SDS011;26579;43.238;23.124;2024-03-17T01:15:20;17.75;;;11.00;;
39410;SDS011;26579;43.238;23.124;2024-03-17T01:17:46;21.40;;;10.38;;
39410;SDS011;26579;43.238;23.124;2024-03-17T01:20:12;16.65;;;10.02;;
39410;SDS011;26579;43.238;23.124;2024-03-17T01:22:37;20.10;;;11.13;;
39410;SDS011;26579;43.238;23.124;2024-03-17T01:25:03;20.83;;;11.70;;
39410;SDS011;26579;43.238;23.124;2024-03-17T01:27:29;20.20;;;11.45;;
39410;SDS011;26579;43.238;23.124;2024-03-17T01:29:54;17.25;;;10.95;;
39410;SDS011;26579;43.238;23.124;2024-03-17T01:32:20;19.63;;;11.07;;
39410;SDS011;26579;43.238;23.124;2024-03-17T01:34:46;25.63;;;11.90;;
39410;SDS011;26579;43.238;23.124;2024-03-17T01:37:11;19.85;;;12.75;;
39410;SDS011;26579;43.238;23.124;2024-03-17T01:39:37;26.55;;;12.02;;
39410;SDS011;26579;43.238;23.124;2024-03-17T01:42:02;16.35;;;10.57;;
39410;SDS011;26579;43.238;23.124;2024-03-17T01:44:28;19.48;;;11.35;;
39410;SDS011;26579;43.238;23.124;2024-03-17T01:46:55;17.73;;;11.57;;
39410;SDS011;26579;43.238;23.124;2024-03-17T01:49:21;18.40;;;11.13;;
39410;SDS011;26579;43.238;23.124;2024-03-17T01:51:48;21.15;;;11.45;;
39410;SDS011;26579;43.238;23.124;2024-03-17T01:54:14;15.32;;;9.52;;
39410;SDS011;26579;43.238;23.124;2024-03-17T01:56:40;18.95;;;11.60;;
39410;SDS011;26579;43.238;23.124;2024-03-17T01:59:07;18.85;;;10.70;;
39410;SDS011;26579;43.238;23.124;2024-03-17T02:01:33;17.02;;;10.35;;
39410;SDS011;26579;43.238;23.124;2024-03-17T02:03:59;18.65;;;10.90;;
39410;SDS011;26579;43.238;23.124;2024-03-17T02:06:25;16.15;;;9.88;;
39410;SDS011;26579;43.238;23.124;2024-03-17T02:08:51;16.15;;;10.15;;
39410;SDS011;26579;43.238;23.124;2024-03-17T02:11:28;17.00;;;10.38;;
39410;SDS011;26579;43.238;23.124;2024-03-17T02:13:59;19.00;;;10.82;;
39410;SDS011;26579;43.238;23.124;2024-03-17T02:16:25;18.10;;;10.32;;
39410;SDS011;26579;43.238;23.124;2024-03-17T02:18:54;16.20;;;10.98;;
39410;SDS011;26579;43.238;23.124;2024-03-17T02:21:20;18.50;;;10.40;;
39410;SDS011;26579;43.238;23.124;2024-03-17T02:23:46;16.33;;;11.25;;
39410;SDS011;26579;43.238;23.124;2024-03-17T02:26:11;20.85;;;10.68;;
39410;SDS011;26579;43.238;23.124;2024-03-17T02:28:40;16.80;;;10.50;;
39410;SDS011;26579;43.238;23.124;2024-03-17T02:31:07;19.48;;;11.18;;
39410;SDS011;26579;43.238;23.124;2024-03-17T02:33:34;22.15;;;11.20;;
39410;SDS011;26579;43.238;23.124;2024-03-17T02:36:00;20.50;;;12.30;;
39410;SDS011;26579;43.238;23.124;2024-03-17T02:38:26;20.90;;;12.02;;
39410;SDS011;26579;43.238;23.124;2024-03-17T02:40:52;22.75;;;12.20;;
39410;SDS011;26579;43.238;23.124;2024-03-17T02:43:18;18.52;;;11.50;;
39410;SDS011;26579;43.238;23.124;2024-03-17T02:45:43;16.67;;;10.85;;
39410;SDS011;26579;43.238;23.124;2024-03-17T02:48:09;21.98;;;11.93;;
39410;SDS011;26579;43.238;23.124;2024-03-17T02:50:34;16.40;;;10.25;;
39410;SDS011;26579;43.238;23.124;2024-03-17T02:53:00;20.52;;;11.70;;
39410;SDS011;26579;43.238;23.124;2024-03-17T02:55:26;24.23;;;12.30;;
39410;SDS011;26579;43.238;23.124;2024-03-17T02:57:51;15.75;;;10.40;;
39410;SDS011;26579;43.238;23.124;2024-03-17T03:00:17;17.73;;;11.13;;
39410;SDS011;26579;43.238;23.124;2024-03-17T03:02:43;20.88;;;11.13;;
39410;SDS011;26579;43.238;23.124;2024-03-17T03:05:08;22.15;;;11.68;;
39410;SDS011;26579;43.238;23.124;2024-03-17T03:07:34;22.02;;;11.68;;
39410;SDS011;26579;43.238;23.124;2024-03-17T03:10:00;16.95;;;10.45;;
39410;SDS011;26579;43.238;23.124;2024-03-17T03:12:25;18.67;;;11.07;;
39410;SDS011;26579;43.238;23.124;2024-03-17T03:14:51;16.52;;;10.50;;
39410;SDS011;26579;43.238;23.124;2024-03-17T03:17:16;19.92;;;11.18;;
39410;SDS011;26579;43.238;23.124;2024-03-17T03:19:42;20.38;;;12.45;;
39410;SDS011;26579;43.238;23.124;2024-03-17T03:22:08;22.77;;;12.95;;
39410;SDS011;26579;43.238;23.124;2024-03-17T03:24:33;23.67;;;12.35;;
39410;SDS011;26579;43.238;23.124;2024-03-17T03:26:59;23.23;;;12.98;;
39410;SDS011;26579;43.238;23.124;2024-03-17T03:29:24;23.50;;;12.45;;
39410;SDS011;26579;43.238;23.124;2024-03-17T03:31:50;23.17;;;11.77;;
39410;SDS011;26579;43.238;23.124;2024-03-17T03:34:16;19.13;;;10.73;;
39410;SDS011;26579;43.238;23.124;2024-03-17T03:36:41;20.90;;;12.52;;
39410;SDS011;26579;43.238;23.124;2024-03-17T03:39:07;21.45;;;12.38;;
39410;SDS011;26579;43.238;23.124;2024-03-17T03:41:33;19.67;;;11.80;;
39410;SDS011;26579;43.238;23.124;2024-03-17T03:43:58;17.67;;;11.18;;
39410;SDS011;26579;43.238;23.124;2024-03-17T03:46:24;16.00;;;9.25;;
39410;SDS011;26579;43.238;23.124;2024-03-17T03:48:50;18.80;;;11.15;;
39410;SDS011;26579;43.238;23.124;2024-03-17T03:51:15;20.30;;;11.60;;
39410;SDS011;26579;43.238;23.124;2024-03-17T03:53:41;20.20;;;11.48;;
39410;SDS011;26579;43.238;23.124;2024-03-17T03:56:06;19.15;;;10.43;;
39410;SDS011;26579;43.238;23.124;2024-03-17T03:58:35;23.33;;;12.57;;
39410;SDS011;26579;43.238;23.124;2024-03-17T04:01:08;24.40;;;12.55;;
39410;SDS011;26579;43.238;23.124;2024-03-17T04:03:35;22.85;;;12.55;;
39410;SDS011;26579;43.238;23.124;2024-03-17T04:06:04;24.98;;;12.57;;
39410;SDS011;26579;43.238;23.124;2024-03-17T04:08:32;21.08;;;10.60;;
39410;SDS011;26579;43.238;23.124;2024-03-17T04:10:59;20.02;;;11.45;;
39410;SDS011;26579;43.238;23.124;2024-03-17T04:13:25;19.30;;;11.40;;
39410;SDS011;26579;43.238;23.124;2024-03-17T04:15:50;17.15;;;10.45;;
39410;SDS011;26579;43.238;23.124;2024-03-17T04:18:16;17.33;;;10.68;;
39410;SDS011;26579;43.238;23.124;2024-03-17T04:20:41;22.55;;;11.43;;
39410;SDS011;26579;43.238;23.124;2024-03-17T04:23:07;16.88;;;11.40;;
39410;SDS011;26579;43.238;23.124;2024-03-17T04:25:33;16.45;;;10.57;;
39410;SDS011;26579;43.238;23.124;2024-03-17T04:27:59;17.83;;;10.70;;
39410;SDS011;26579;43.238;23.124;2024-03-17T04:30:25;19.77;;;11.23;;
39410;SDS011;26579;43.238;23.124;2024-03-17T04:32:50;20.67;;;11.77;;
39410;SDS011;26579;43.238;23.124;2024-03-17T04:35:16;23.42;;;12.05;;
39410;SDS011;26579;43.238;23.124;2024-03-17T04:37:42;26.70;;;14.43;;
39410;SDS011;26579;43.238;23.124;2024-03-17T04:40:07;33.50;;;17.42;;
39410;SDS011;26579;43.238;23.124;2024-03-17T04:42:33;38.28;;;20.33;;
39410;SDS011;26579;43.238;23.124;2024-03-17T04:44:59;110.65;;;49.15;;
39410;SDS011;26579;43.238;23.124;2024-03-17T04:47:25;99.43;;;60.10;;
39410;SDS011;26579;43.238;23.124;2024-03-17T04:49:50;238.90;;;147.00;;
39410;SDS011;26579;43.238;23.124;2024-03-17T04:52:16;207.55;;;127.28;;
39410;SDS011;26579;43.238;23.124;2024-03-17T04:54:42;136.35;;;96.07;;
39410;SDS011;26579;43.238;23.124;2024-03-17T04:57:07;40.35;;;25.55;;
39410;SDS011;26579;43.238;23.124;2024-03-17T04:59:33;35.33;;;18.92;;
39410;SDS011;26579;43.238;23.124;2024-03-17T05:02:00;28.05;;;15.57;;
39410;SDS011;26579;43.238;23.124;2024-03-17T05:04:25;34.78;;;17.20;;
39410;SDS011;26579;43.238;23.124;2024-03-17T05:06:51;39.88;;;23.48;;
39410;SDS011;26579;43.238;23.124;2024-03-17T05:09:17;47.10;;;28.65;;
39410;SDS011;26579;43.238;23.124;2024-03-17T05:11:43;32.85;;;22.98;;
39410;SDS011;26579;43.238;23.124;2024-03-17T05:14:08;31.50;;;20.40;;
39410;SDS011;26579;43.238;23.124;2024-03-17T05:16:36;32.47;;;19.63;;
39410;SDS011;26579;43.238;23.124;2024-03-17T05:19:02;32.35;;;18.00;;
39410;SDS011;26579;43.238;23.124;2024-03-17T05:21:28;31.85;;;19.35;;
39410;SDS011;26579;43.238;23.124;2024-03-17T05:23:53;31.45;;;17.45;;
39410;SDS011;26579;43.238;23.124;2024-03-17T05:26:19;23.25;;;15.20;;
39410;SDS011;26579;43.238;23.124;2024-03-17T05:28:45;25.02;;;15.88;;
39410;SDS011;26579;43.238;23.124;2024-03-17T05:31:10;30.83;;;17.83;;
39410;SDS011;26579;43.238;23.124;2024-03-17T05:33:36;34.60;;;19.98;;
39410;SDS011;26579;43.238;23.124;2024-03-17T05:36:02;32.83;;;20.33;;
39410;SDS011;26579;43.238;23.124;2024-03-17T05:38:29;29.23;;;18.17;;
39410;SDS011;26579;43.238;23.124;2024-03-17T05:43:24;23.02;;;15.20;;
39410;SDS011;26579;43.238;23.124;2024-03-17T05:45:53;19.80;;;12.98;;
39410;SDS011;26579;43.238;23.124;2024-03-17T05:48:19;22.15;;;12.95;;
39410;SDS011;26579;43.238;23.124;2024-03-17T05:50:46;21.92;;;12.93;;
39410;SDS011;26579;43.238;23.124;2024-03-17T05:53:11;20.15;;;12.95;;
39410;SDS011;26579;43.238;23.124;2024-03-17T05:55:37;18.30;;;12.07;;
39410;SDS011;26579;43.238;23.124;2024-03-17T05:58:03;20.73;;;13.25;;
39410;SDS011;26579;43.238;23.124;2024-03-17T06:00:29;18.77;;;12.43;;
39410;SDS011;26579;43.238;23.124;2024-03-17T06:02:57;19.83;;;13.07;;
39410;SDS011;26579;43.238;23.124;2024-03-17T06:05:22;19.17;;;13.32;;
39410;SDS011;26579;43.238;23.124;2024-03-17T06:07:48;20.85;;;12.00;;
39410;SDS011;26579;43.238;23.124;2024-03-17T06:10:14;20.77;;;13.23;;
39410;SDS011;26579;43.238;23.124;2024-03-17T06:12:40;20.05;;;11.77;;
39410;SDS011;26579;43.238;23.124;2024-03-17T06:15:05;20.27;;;12.68;;
39410;SDS011;26579;43.238;23.124;2024-03-17T06:17:32;16.98;;;10.82;;
39410;SDS011;26579;43.238;23.124;2024-03-17T06:19:57;19.45;;;12.05;;
39410;SDS011;26579;43.238;23.124;2024-03-17T06:22:23;18.63;;;11.45;;
39410;SDS011;26579;43.238;23.124;2024-03-17T06:24:49;20.77;;;12.38;;
39410;SDS011;26579;43.238;23.124;2024-03-17T06:27:15;20.98;;;11.25;;
39410;SDS011;26579;43.238;23.124;2024-03-17T06:29:41;22.13;;;12.68;;
39410;SDS011;26579;43.238;23.124;2024-03-17T06:32:07;23.52;;;14.98;;
39410;SDS011;26579;43.238;23.124;2024-03-17T06:34:32;27.60;;;17.52;;
39410;SDS011;26579;43.238;23.124;2024-03-17T06:36:58;22.20;;;14.57;;
39410;SDS011;26579;43.238;23.124;2024-03-17T06:39:24;22.13;;;13.80;;
39410;SDS011;26579;43.238;23.124;2024-03-17T06:41:49;24.05;;;15.75;;
39410;SDS011;26579;43.238;23.124;2024-03-17T06:44:15;28.70;;;19.25;;
39410;SDS011;26579;43.238;23.124;2024-03-17T06:46:41;32.72;;;20.30;;
39410;SDS011;26579;43.238;23.124;2024-03-17T06:49:06;39.83;;;22.17;;
39410;SDS011;26579;43.238;23.124;2024-03-17T06:51:32;38.78;;;22.95;;
39410;SDS011;26579;43.238;23.124;2024-03-17T06:53:57;50.35;;;31.80;;
39410;SDS011;26579;43.238;23.124;2024-03-17T06:56:23;35.67;;;23.85;;
39410;SDS011;26579;43.238;23.124;2024-03-17T06:58:49;36.97;;;24.27;;
39410;SDS011;26579;43.238;23.124;2024-03-17T07:01:14;28.13;;;19.65;;
39410;SDS011;26579;43.238;23.124;2024-03-17T07:03:42;50.97;;;24.60;;
39410;SDS011;26579;43.238;23.124;2024-03-17T07:06:09;31.95;;;19.70;;
39410;SDS011;26579;43.238;23.124;2024-03-17T07:08:35;27.75;;;17.63;;
39410;SDS011;26579;43.238;23.124;2024-03-17T07:11:01;24.05;;;16.15;;
39410;SDS011;26579;43.238;23.124;2024-03-17T07:13:31;23.20;;;16.92;;
39410;SDS011;26579;43.238;23.124;2024-03-17T07:16:01;30.70;;;17.92;;
39410;SDS011;26579;43.238;23.124;2024-03-17T07:18:28;28.73;;;19.25;;
39410;SDS011;26579;43.238;23.124;2024-03-17T07:21:01;31.20;;;18.80;;
39410;SDS011;26579;43.238;23.124;2024-03-17T07:23:28;24.35;;;16.33;;
39410;SDS011;26579;43.238;23.124;2024-03-17T07:25:57;24.00;;;16.35;;
39410;SDS011;26579;43.238;23.124;2024-03-17T07:28:24;27.98;;;17.42;;
39410;SDS011;26579;43.238;23.124;2024-03-17T07:30:50;25.58;;;16.33;;
39410;SDS011;26579;43.238;23.124;2024-03-17T07:33:20;26.25;;;17.15;;
39410;SDS011;26579;43.238;23.124;2024-03-17T07:35:47;26.17;;;17.00;;
39410;SDS011;26579;43.238;23.124;2024-03-17T07:38:15;23.05;;;14.93;;
39410;SDS011;26579;43.238;23.124;2024-03-17T07:40:42;30.83;;;20.80;;
39410;SDS011;26579;43.238;23.124;2024-03-17T07:43:08;24.10;;;16.25;;
39410;SDS011;26579;43.238;23.124;2024-03-17T07:45:34;22.80;;;13.10;;
39410;SDS011;26579;43.238;23.124;2024-03-17T07:47:59;18.20;;;11.73;;
39410;SDS011;26579;43.238;23.124;2024-03-17T07:50:25;19.08;;;12.32;;
39410;SDS011;26579;43.238;23.124;2024-03-17T07:52:50;19.92;;;12.40;;
39410;SDS011;26579;43.238;23.124;2024-03-17T07:55:16;20.48;;;13.32;;
39410;SDS011;26579;43.238;23.124;2024-03-17T07:57:42;24.27;;;14.35;;
39410;SDS011;26579;43.238;23.124;2024-03-17T08:00:08;18.92;;;12.93;;
39410;SDS011;26579;43.238;23.124;2024-03-17T08:02:34;21.02;;;12.98;;
39410;SDS011;26579;43.238;23.124;2024-03-17T08:04:59;25.20;;;15.23;;
39410;SDS011;26579;43.238;23.124;2024-03-17T08:07:25;20.70;;;13.70;;
39410;SDS011;26579;43.238;23.124;2024-03-17T08:09:50;24.90;;;15.05;;
39410;SDS011;26579;43.238;23.124;2024-03-17T08:12:16;20.27;;;12.88;;
39410;SDS011;26579;43.238;23.124;2024-03-17T08:14:42;23.75;;;14.95;;
39410;SDS011;26579;43.238;23.124;2024-03-17T08:17:07;22.90;;;14.82;;
39410;SDS011;26579;43.238;23.124;2024-03-17T08:19:33;26.90;;;15.60;;
39410;SDS011;26579;43.238;23.124;2024-03-17T08:21:58;20.17;;;13.88;;
39410;SDS011;26579;43.238;23.124;2024-03-17T08:24:24;26.20;;;15.77;;
39410;SDS011;26579;43.238;23.124;2024-03-17T08:26:50;24.50;;;15.25;;
39410;SDS011;26579;43.238;23.124;2024-03-17T08:29:15;28.13;;;14.15;;
39410;SDS011;26579;43.238;23.124;2024-03-17T08:31:41;24.70;;;16.10;;
39410;SDS011;26579;43.238;23.124;2024-03-17T08:34:07;32.85;;;19.08;;
39410;SDS011;26579;43.238;23.124;2024-03-17T08:36:32;40.45;;;25.52;;
39410;SDS011;26579;43.238;23.124;2024-03-17T08:38:58;30.38;;;17.95;;
39410;SDS011;26579;43.238;23.124;2024-03-17T08:41:23;27.92;;;18.08;;
39410;SDS011;26579;43.238;23.124;2024-03-17T08:43:49;28.42;;;17.00;;
39410;SDS011;26579;43.238;23.124;2024-03-17T08:46:15;32.20;;;19.15;;
39410;SDS011;26579;43.238;23.124;2024-03-17T08:48:40;28.25;;;15.18;;
39410;SDS011;26579;43.238;23.124;2024-03-17T08:51:07;27.35;;;16.67;;
39410;SDS011;26579;43.238;23.124;2024-03-17T08:53:33;25.00;;;16.52;;
39410;SDS011;26579;43.238;23.124;2024-03-17T08:55:59;28.50;;;18.63;;
39410;SDS011;26579;43.238;23.124;2024-03-17T08:58:26;27.98;;;15.77;;
39410;SDS011;26579;43.238;23.124;2024-03-17T09:00:52;28.90;;;15.40;;
39410;SDS011;26579;43.238;23.124;2024-03-17T09:03:18;19.40;;;12.38;;
39410;SDS011;26579;43.238;23.124;2024-03-17T09:05:45;18.42;;;11.68;;
39410;SDS011;26579;43.238;23.124;2024-03-17T09:08:19;24.17;;;14.73;;
39410;SDS011;26579;43.238;23.124;2024-03-17T09:10:46;19.08;;;11.45;;
39410;SDS011;26579;43.238;23.124;2024-03-17T09:13:13;20.17;;;11.48;;
39410;SDS011;26579;43.238;23.124;2024-03-17T09:15:41;14.60;;;10.15;;
39410;SDS011;26579;43.238;23.124;2024-03-17T09:18:14;17.80;;;10.95;;
39410;SDS011;26579;43.238;23.124;2024-03-17T09:20:40;17.00;;;11.40;;
39410;SDS011;26579;43.238;23.124;2024-03-17T09:23:06;21.70;;;11.50;;
39410;SDS011;26579;43.238;23.124;2024-03-17T09:25:31;17.88;;;10.70;;
39410;SDS011;26579;43.238;23.124;2024-03-17T09:27:57;13.77;;;10.00;;
39410;SDS011;26579;43.238;23.124;2024-03-17T09:30:22;14.20;;;10.07;;
39410;SDS011;26579;43.238;23.124;2024-03-17T09:32:48;16.65;;;9.93;;
39410;SDS011;26579;43.238;23.124;2024-03-17T09:35:14;13.88;;;9.27;;
39410;SDS011;26579;43.238;23.124;2024-03-17T09:37:39;14.20;;;9.40;;
39410;SDS011;26579;43.238;23.124;2024-03-17T09:40:05;13.63;;;9.65;;
39410;SDS011;26579;43.238;23.124;2024-03-17T09:42:39;12.30;;;8.35;;
39410;SDS011;26579;43.238;23.124;2024-03-17T09:45:06;16.40;;;10.05;;
39410;SDS011;26579;43.238;23.124;2024-03-17T09:47:33;20.02;;;9.82;;
39410;SDS011;26579;43.238;23.124;2024-03-17T09:49:59;11.52;;;8.63;;
39410;SDS011;26579;43.238;23.124;2024-03-17T09:52:26;12.88;;;9.32;;
39410;SDS011;26579;43.238;23.124;2024-03-17T09:57:17;12.60;;;8.43;;
39410;SDS011;26579;43.238;23.124;2024-03-17T09:59:42;11.30;;;8.10;;
39410;SDS011;26579;43.238;23.124;2024-03-17T10:02:15;13.93;;;9.00;;
39410;SDS011;26579;43.238;23.124;2024-03-17T10:04:42;11.68;;;7.50;;
39410;SDS011;26579;43.238;23.124;2024-03-17T10:07:08;11.90;;;8.02;;
39410;SDS011;26579;43.238;23.124;2024-03-17T10:09:34;11.57;;;7.63;;
39410;SDS011;26579;43.238;23.124;2024-03-17T10:11:59;15.13;;;8.32;;
39410;SDS011;26579;43.238;23.124;2024-03-17T10:14:25;14.32;;;8.48;;
39410;SDS011;26579;43.238;23.124;2024-03-17T10:16:51;17.85;;;8.77;;
39410;SDS011;26579;43.238;23.124;2024-03-17T10:19:23;11.10;;;8.07;;
39410;SDS011;26579;43.238;23.124;2024-03-17T10:21:50;17.25;;;9.48;;
39410;SDS011;26579;43.238;23.124;2024-03-17T10:24:23;15.68;;;9.23;;
39410;SDS011;26579;43.238;23.124;2024-03-17T10:26:51;14.77;;;9.23;;
39410;SDS011;26579;43.238;23.124;2024-03-17T10:29:21;10.68;;;7.00;;
39410;SDS011;26579;43.238;23.124;2024-03-17T10:31:57;12.48;;;7.38;;
39410;SDS011;26579;43.238;23.124;2024-03-17T10:34:25;17.30;;;9.23;;
39410;SDS011;26579;43.238;23.124;2024-03-17T10:37:16;12.88;;;8.27;;
39410;SDS011;26579;43.238;23.124;2024-03-17T10:39:42;13.05;;;8.00;;
39410;SDS011;26579;43.238;23.124;2024-03-17T10:42:09;11.98;;;7.13;;
39410;SDS011;26579;43.238;23.124;2024-03-17T10:44:37;10.85;;;7.70;;
39410;SDS011;26579;43.238;23.124;2024-03-17T10:47:04;44.58;;;21.17;;
39410;SDS011;26579;43.238;23.124;2024-03-17T10:49:32;25.88;;;19.08;;
39410;SDS011;26579;43.238;23.124;2024-03-17T10:52:03;14.10;;;10.25;;
39410;SDS011;26579;43.238;23.124;2024-03-17T10:54:30;12.82;;;9.05;;
39410;SDS011;26579;43.238;23.124;2024-03-17T10:57:00;12.70;;;9.18;;
39410;SDS011;26579;43.238;23.124;2024-03-17T10:59:38;18.10;;;10.73;;
39410;SDS011;26579;43.238;23.124;2024-03-17T11:02:09;12.52;;;8.48;;
39410;SDS011;26579;43.238;23.124;2024-03-17T11:04:52;8.98;;;6.63;;
39410;SDS011;26579;43.238;23.124;2024-03-17T11:07:20;8.57;;;5.68;;
39410;SDS011;26579;43.238;23.124;2024-03-17T11:09:46;17.40;;;10.35;;
39410;SDS011;26579;43.238;23.124;2024-03-17T11:17:49;12.07;;;7.22;;
39410;SDS011;26579;43.238;23.124;2024-03-17T11:20:21;12.23;;;8.70;;
39410;SDS011;26579;43.238;23.124;2024-03-17T11:22:52;26.35;;;16.48;;
39410;SDS011;26579;43.238;23.124;2024-03-17T11:27:52;30.63;;;17.17;;
39410;SDS011;26579;43.238;23.124;2024-03-17T11:38:50;14.85;;;10.10;;
39410;SDS011;26579;43.238;23.124;2024-03-17T11:49:33;14.02;;;9.95;;
39410;SDS011;26579;43.238;23.124;2024-03-17T11:52:01;14.05;;;10.43;;
39410;SDS011;26579;43.238;23.124;2024-03-17T11:54:31;13.10;;;8.93;;
39410;SDS011;26579;43.238;23.124;2024-03-17T11:57:05;14.45;;;8.57;;
39410;SDS011;26579;43.238;23.124;2024-03-17T11:59:35;12.70;;;8.13;;
39410;SDS011;26579;43.238;23.124;2024-03-17T12:02:01;16.88;;;11.82;;
39410;SDS011;26579;43.238;23.124;2024-03-17T12:04:26;21.15;;;13.70;;
39410;SDS011;26579;43.238;23.124;2024-03-17T12:06:55;15.52;;;9.65;;
39410;SDS011;26579;43.238;23.124;2024-03-17T12:09:22;13.05;;;8.77;;
39410;SDS011;26579;43.238;23.124;2024-03-17T12:12:02;12.23;;;8.60;;
39410;SDS011;26579;43.238;23.124;2024-03-17T12:14:28;13.27;;;9.75;;
39410;SDS011;26579;43.238;23.124;2024-03-17T12:16:54;14.43;;;10.15;;
39410;SDS011;26579;43.238;23.124;2024-03-17T12:19:21;13.55;;;10.13;;
39410;SDS011;26579;43.238;23.124;2024-03-17T12:21:49;16.00;;;11.00;;
39410;SDS011;26579;43.238;23.124;2024-03-17T12:24:20;13.95;;;9.77;;
39410;SDS011;26579;43.238;23.124;2024-03-17T12:26:47;14.05;;;10.88;;
39410;SDS011;26579;43.238;23.124;2024-03-17T12:29:23;12.52;;;8.68;;
39410;SDS011;26579;43.238;23.124;2024-03-17T12:31:55;13.50;;;8.10;;
39410;SDS011;26579;43.238;23.124;2024-03-17T12:34:25;12.70;;;8.63;;
39410;SDS011;26579;43.238;23.124;2024-03-17T12:36:52;15.10;;;8.27;;
39410;SDS011;26579;43.238;23.124;2024-03-17T12:39:22;11.63;;;8.00;;
39410;SDS011;26579;43.238;23.124;2024-03-17T12:44:34;13.80;;;8.65;;
39410;SDS011;26579;43.238;23.124;2024-03-17T12:47:06;15.52;;;9.65;;
39410;SDS011;26579;43.238;23.124;2024-03-17T12:49:35;16.40;;;10.98;;
39410;SDS011;26579;43.238;23.124;2024-03-17T12:52:01;25.42;;;15.05;;
39410;SDS011;26579;43.238;23.124;2024-03-17T12:54:28;16.45;;;10.48;;
39410;SDS011;26579;43.238;23.124;2024-03-17T12:57:03;13.05;;;7.90;;
39410;SDS011;26579;43.238;23.124;2024-03-17T12:59:37;12.73;;;8.45;;
39410;SDS011;26579;43.238;23.124;2024-03-17T13:02:12;13.27;;;9.25;;
39410;SDS011;26579;43.238;23.124;2024-03-17T13:04:38;12.45;;;8.55;;
39410;SDS011;26579;43.238;23.124;2024-03-17T13:07:10;14.52;;;8.63;;
39410;SDS011;26579;43.238;23.124;2024-03-17T13:09:36;11.70;;;8.02;;
39410;SDS011;26579;43.238;23.124;2024-03-17T13:12:02;12.15;;;7.32;;
39410;SDS011;26579;43.238;23.124;2024-03-17T13:14:39;14.48;;;9.20;;
39410;SDS011;26579;43.238;23.124;2024-03-17T13:17:06;10.98;;;7.70;;
39410;SDS011;26579;43.238;23.124;2024-03-17T13:19:32;12.18;;;8.95;;
39410;SDS011;26579;43.238;23.124;2024-03-17T13:21:57;11.00;;;8.48;;
39410;SDS011;26579;43.238;23.124;2024-03-17T13:24:23;20.27;;;11.20;;
39410;SDS011;26579;43.238;23.124;2024-03-17T13:26:49;13.40;;;8.73;;
39410;SDS011;26579;43.238;23.124;2024-03-17T13:29:14;10.45;;;7.20;;
39410;SDS011;26579;43.238;23.124;2024-03-17T13:31:40;9.75;;;7.72;;
39410;SDS011;26579;43.238;23.124;2024-03-17T13:34:05;9.25;;;6.53;;
39410;SDS011;26579;43.238;23.124;2024-03-17T13:36:31;9.82;;;6.80;;
39410;SDS011;26579;43.238;23.124;2024-03-17T13:38:57;10.75;;;6.90;;
39410;SDS011;26579;43.238;23.124;2024-03-17T13:41:22;13.60;;;10.98;;
39410;SDS011;26579;43.238;23.124;2024-03-17T13:43:48;15.98;;;11.70;;
39410;SDS011;26579;43.238;23.124;2024-03-17T13:46:14;19.02;;;12.88;;
39410;SDS011;26579;43.238;23.124;2024-03-17T13:48:39;17.63;;;11.88;;
39410;SDS011;26579;43.238;23.124;2024-03-17T13:51:05;13.20;;;8.20;;
39410;SDS011;26579;43.238;23.124;2024-03-17T13:53:33;12.65;;;8.43;;
39410;SDS011;26579;43.238;23.124;2024-03-17T13:55:58;14.10;;;7.97;;
39410;SDS011;26579;43.238;23.124;2024-03-17T13:58:24;17.80;;;8.10;;
39410;SDS011;26579;43.238;23.124;2024-03-17T14:00:50;14.18;;;9.15;;
39410;SDS011;26579;43.238;23.124;2024-03-17T14:03:15;21.52;;;13.00;;
39410;SDS011;26579;43.238;23.124;2024-03-17T14:05:41;18.95;;;10.77;;
39410;SDS011;26579;43.238;23.124;2024-03-17T14:08:07;12.48;;;7.75;;
39410;SDS011;26579;43.238;23.124;2024-03-17T14:10:32;11.75;;;7.18;;
39410;SDS011;26579;43.238;23.124;2024-03-17T14:12:58;14.52;;;8.88;;
39410;SDS011;26579;43.238;23.124;2024-03-17T14:15:23;15.38;;;10.48;;
39410;SDS011;26579;43.238;23.124;2024-03-17T14:17:49;19.83;;;11.25;;
39410;SDS011;26579;43.238;23.124;2024-03-17T14:20:15;18.27;;;11.68;;
39410;SDS011;26579;43.238;23.124;2024-03-17T14:22:41;19.80;;;13.43;;
39410;SDS011;26579;43.238;23.124;2024-03-17T14:25:09;19.48;;;13.10;;
39410;SDS011;26579;43.238;23.124;2024-03-17T14:27:40;17.63;;;10.30;;
39410;SDS011;26579;43.238;23.124;2024-03-17T14:30:06;14.55;;;9.32;;
39410;SDS011;26579;43.238;23.124;2024-03-17T14:32:32;14.60;;;9.15;;
39410;SDS011;26579;43.238;23.124;2024-03-17T14:34:57;15.73;;;10.18;;
39410;SDS011;26579;43.238;23.124;2024-03-17T14:37:23;18.95;;;11.90;;
39410;SDS011;26579;43.238;23.124;2024-03-17T14:39:50;29.30;;;19.10;;
39410;SDS011;26579;43.238;23.124;2024-03-17T14:42:16;31.15;;;19.75;;